Time;durP1;ratioP1;P1;durP2;ratioP2;P2;SDS_P1;SDS_P2;PMS_P1;PMS_P2;Temp;Humidity;BMP_temperature;BMP_pressure;BME280_temperature;BME280_humidity;BME280_pressure;Samples;Min_cycle;Max_cycle;Signal;HPM_P1;HPM_P2
2021/05/17 00:02:29;;;;;;;1999.90;999.90;;;9.80;99.90;;;;;;4824942;29;20197;-93
2021/05/17 00:08:35;;;;;;;;;;;;;;;;;;;;;
2021/05/17 00:14:29;;;;;;;;;;;;;;;;;;;;;
2021/05/17 00:17:25;;;;;;;;;;;;;;;;;;;;;
2021/05/17 00:20:38;;;;;;;1999.90;999.90;;;9.80;99.90;;;;;;4880832;29;20564;-93
2021/05/17 00:23:42;;;;;;;;;;;;;;;;;;;;;
2021/05/17 00:29:13;;;;;;;1999.90;999.90;;;9.80;99.90;;;;;;4889772;29;20634;-93
2021/05/17 00:35:01;;;;;;;;;;;;;;;;;;;;;
2021/05/17 00:37:58;;;;;;;1999.90;999.90;;;9.70;99.90;;;;;;4899927;29;20167;-93
2021/05/17 00:40:41;;;;;;;1999.90;999.90;;;9.70;99.90;;;;;;4898469;29;20210;-93
2021/05/17 00:43:20;;;;;;;;;;;;;;;;;;;;;
2021/05/17 00:46:10;;;;;;;1999.90;999.90;;;9.60;99.90;;;;;;4900324;29;20159;-94
2021/05/17 00:48:40;;;;;;;1999.90;999.90;;;9.60;99.90;;;;;;4883596;29;20591;-93
2021/05/17 00:51:13;;;;;;;1999.90;999.90;;;9.60;99.90;;;;;;4883473;29;20242;-93
2021/05/17 00:53:54;;;;;;;1999.90;999.90;;;9.60;99.90;;;;;;4883512;29;20236;-93
2021/05/17 00:56:43;;;;;;;1999.90;999.90;;;9.60;99.90;;;;;;4883159;29;20217;-93
2021/05/17 00:59:31;;;;;;;1999.90;999.90;;;9.60;99.90;;;;;;4874368;29;20217;-93
2021/05/17 01:02:00;;;;;;;1999.90;999.90;;;9.50;99.90;;;;;;4899203;29;20246;-93
2021/05/17 01:04:26;;;;;;;1999.90;999.90;;;9.60;99.90;;;;;;4883733;29;20645;-93
2021/05/17 01:06:53;;;;;;;1999.90;999.90;;;9.50;99.90;;;;;;4882877;29;20273;-92
2021/05/17 01:09:22;;;;;;;1999.90;999.90;;;9.50;99.90;;;;;;4882786;29;20187;-93
2021/05/17 01:11:49;;;;;;;1999.90;999.90;;;9.50;99.90;;;;;;4882948;29;20201;-92
2021/05/17 01:14:14;;;;;;;1999.90;999.90;;;9.50;99.90;;;;;;4882902;29;20652;-92
2021/05/17 01:16:41;;;;;;;1999.90;999.90;;;9.60;99.90;;;;;;4882606;29;20281;-94
2021/05/17 01:19:14;;;;;;;1999.90;999.90;;;9.60;99.90;;;;;;4882474;29;20692;-91
2021/05/17 01:21:49;;;;;;;1999.90;999.90;;;9.60;99.90;;;;;;4882585;29;20186;-93
2021/05/17 01:24:20;;;;;;;1999.90;999.90;;;9.60;99.90;;;;;;4882943;29;20185;-92
2021/05/17 01:26:48;;;;;;;1999.90;999.90;;;9.70;99.90;;;;;;4882591;29;20186;-91
2021/05/17 01:29:17;;;;;;;1999.90;999.90;;;9.70;99.90;;;;;;4883151;29;20198;-93
2021/05/17 01:31:43;;;;;;;1999.90;999.90;;;9.70;99.90;;;;;;4886447;29;20253;-92
2021/05/17 01:34:10;;;;;;;1999.90;999.90;;;9.70;99.90;;;;;;4886720;29;20254;-93
2021/05/17 01:36:40;;;;;;;1999.90;999.90;;;9.70;99.90;;;;;;4887212;29;20197;-93
2021/05/17 01:39:10;;;;;;;1999.90;999.90;;;9.70;99.90;;;;;;4886018;29;20229;-93
2021/05/17 01:41:54;;;;;;;1999.90;999.90;;;9.80;99.90;;;;;;4886550;29;20330;-94
2021/05/17 01:44:25;;;;;;;1999.90;999.90;;;9.80;99.90;;;;;;4886247;29;20189;-92
2021/05/17 01:46:57;;;;;;;1999.90;999.90;;;9.80;99.90;;;;;;4886836;29;20175;-94
2021/05/17 01:49:26;;;;;;;1999.90;999.90;;;9.80;99.90;;;;;;4886639;29;20209;-93
2021/05/17 01:51:54;;;;;;;1999.90;999.90;;;9.80;99.90;;;;;;4886124;29;20657;-94
2021/05/17 01:54:20;;;;;;;1999.90;999.90;;;9.90;99.90;;;;;;4886376;29;20183;-93
2021/05/17 01:56:46;;;;;;;1999.90;999.90;;;9.90;99.90;;;;;;4886168;29;20219;-93
2021/05/17 01:59:14;;;;;;;1999.90;999.90;;;9.90;99.90;;;;;;4886246;29;20666;-93
2021/05/17 02:01:40;;;;;;;1999.90;999.90;;;9.90;99.90;;;;;;4885743;29;20191;-92
2021/05/17 02:04:09;;;;;;;1999.90;999.90;;;9.90;99.90;;;;;;4885705;29;20178;-91
2021/05/17 02:06:37;;;;;;;1999.90;999.90;;;9.90;99.90;;;;;;4885832;29;20187;-93
2021/05/17 02:09:03;;;;;;;1999.90;999.90;;;9.90;99.90;;;;;;4887196;29;20187;-93
2021/05/17 02:11:29;;;;;;;1999.90;999.90;;;9.90;99.90;;;;;;4885848;29;20191;-92
2021/05/17 02:13:56;;;;;;;1999.90;999.90;;;10.00;99.90;;;;;;4886231;29;20187;-92
2021/05/17 02:16:22;;;;;;;1999.90;999.90;;;10.00;99.90;;;;;;4885619;29;20286;-93
2021/05/17 02:18:50;;;;;;;1999.90;999.90;;;10.00;99.90;;;;;;4885384;29;20359;-93
2021/05/17 02:21:21;;;;;;;1999.90;999.90;;;10.00;99.90;;;;;;4885729;29;20273;-92
2021/05/17 02:23:49;;;;;;;1999.90;999.90;;;10.00;99.90;;;;;;4885285;29;20654;-91
2021/05/17 02:26:21;;;;;;;1999.90;999.90;;;10.00;99.90;;;;;;4885917;29;20182;-91
2021/05/17 02:28:50;;;;;;;1999.90;999.90;;;10.00;99.90;;;;;;4885768;29;20230;-93
2021/05/17 02:31:18;;;;;;;1999.90;999.90;;;10.00;99.90;;;;;;4885161;29;20190;-92
2021/05/17 02:33:44;;;;;;;1999.90;999.90;;;10.00;99.90;;;;;;4885074;29;20638;-92
2021/05/17 02:36:10;;;;;;;1999.90;999.90;;;10.10;99.90;;;;;;4885234;29;20270;-92
2021/05/17 02:38:36;;;;;;;1999.90;999.90;;;10.10;99.90;;;;;;4885353;29;20202;-91
2021/05/17 02:41:06;;;;;;;1999.90;999.90;;;10.00;99.90;;;;;;4883966;29;20218;-93
2021/05/17 02:43:43;;;;;;;1999.90;999.90;;;10.00;99.90;;;;;;4884980;29;20229;-91
2021/05/17 02:46:18;;;;;;;1999.90;999.90;;;10.00;99.90;;;;;;4885192;29;20187;-93
2021/05/17 02:48:45;;;;;;;1999.90;999.90;;;10.00;99.90;;;;;;4886081;29;20194;-93
2021/05/17 02:51:15;;;;;;;1999.90;999.90;;;10.00;99.90;;;;;;4885028;29;20243;-93
2021/05/17 02:53:52;;;;;;;1999.90;999.90;;;10.00;99.90;;;;;;4885446;29;20230;-92
2021/05/17 02:56:35;;;;;;;1999.90;999.90;;;10.00;99.90;;;;;;4901127;29;20261;-92
2021/05/17 02:59:05;;;;;;;1999.90;999.90;;;10.10;99.90;;;;;;4884644;29;20178;-95
2021/05/17 03:01:41;;;;;;;1999.90;999.90;;;10.10;99.90;;;;;;4884730;29;20185;-93
2021/05/17 03:04:16;;;;;;;1999.90;999.90;;;10.10;99.90;;;;;;4884658;29;20190;-92
2021/05/17 03:06:57;;;;;;;1999.90;999.90;;;10.10;99.90;;;;;;4884635;29;20230;-91
2021/05/17 03:12:14;;;;;;;1999.90;999.90;;;10.10;99.90;;;;;;4901389;29;20561;-93
2021/05/17 03:14:42;;;;;;;1999.90;999.90;;;10.10;99.90;;;;;;4884936;29;20515;-94
2021/05/17 03:17:12;;;;;;;1999.90;999.90;;;10.00;99.90;;;;;;4884554;29;20199;-92
2021/05/17 03:19:38;;;;;;;1999.90;999.90;;;10.00;99.90;;;;;;4884276;29;20210;-92
2021/05/17 03:22:06;;;;;;;1999.90;999.90;;;9.90;99.90;;;;;;4884469;29;20545;-92
2021/05/17 03:24:35;;;;;;;1999.90;999.90;;;9.90;99.90;;;;;;4884741;29;20182;-92
2021/05/17 03:27:22;;;;;;;1999.90;999.90;;;9.90;99.90;;;;;;4884394;29;20615;-91
2021/05/17 03:29:49;;;;;;;1999.90;999.90;;;9.80;99.90;;;;;;4899833;29;20198;-93
2021/05/17 03:32:38;;;;;;;1999.90;999.90;;;9.80;99.90;;;;;;4884008;29;20202;-92
2021/05/17 03:35:04;;;;;;;1999.90;999.90;;;9.80;99.90;;;;;;4884053;29;20198;-92
2021/05/17 03:37:30;;;;;;;1999.90;999.90;;;9.80;99.90;;;;;;4883928;29;20187;-91
2021/05/17 03:39:59;;;;;;;1999.90;999.90;;;9.70;99.90;;;;;;4884381;29;20222;-91
2021/05/17 03:42:24;;;;;;;1999.90;999.90;;;9.80;99.90;;;;;;4883893;29;20190;-92
2021/05/17 03:45:02;;;;;;;1999.90;999.90;;;9.80;99.90;;;;;;4884567;29;20191;-92
2021/05/17 03:47:28;;;;;;;1999.90;999.90;;;9.70;99.90;;;;;;4884997;29;20183;-92
2021/05/17 03:49:54;;;;;;;1999.90;999.90;;;9.70;99.90;;;;;;4883970;29;20556;-92
2021/05/17 03:52:20;;;;;;;1999.90;999.90;;;9.70;99.90;;;;;;4883903;29;20657;-92
2021/05/17 03:54:47;;;;;;;1999.90;999.90;;;9.70;99.90;;;;;;4885725;29;20186;-91
2021/05/17 03:57:13;;;;;;;1999.90;999.90;;;9.70;99.90;;;;;;4884574;29;20623;-92
2021/05/17 03:59:45;;;;;;;1999.90;999.90;;;9.80;99.90;;;;;;4884276;29;20274;-92
2021/05/17 04:02:41;;;;;;;1999.90;999.90;;;9.80;99.90;;;;;;4883683;29;20243;-92
2021/05/17 04:20:43;;;;;;;;;;;;;;;;;;;;;
2021/05/17 05:20:30;;;;;;;1999.90;999.90;;;10.10;99.90;;;;;;4897453;29;20214;-91
2021/05/17 05:23:24;;;;;;;1999.90;999.90;;;10.20;99.90;;;;;;4873809;29;20245;-91
2021/05/17 05:28:47;;;;;;;1999.90;999.90;;;10.20;99.90;;;;;;4899131;29;20201;-90
2021/05/17 05:31:43;;;;;;;1999.90;999.90;;;10.30;99.90;;;;;;4883638;29;20178;-90
2021/05/17 05:34:09;;;;;;;1999.90;999.90;;;10.30;99.90;;;;;;4863496;29;20187;-90
2021/05/17 05:36:38;;;;;;;1999.90;999.90;;;10.30;99.90;;;;;;4863584;29;20282;-91
2021/05/17 05:39:07;;;;;;;1999.90;999.90;;;10.40;99.90;;;;;;4878433;29;20685;-90
2021/05/17 05:41:36;;;;;;;1999.90;999.90;;;10.40;99.90;;;;;;4881978;29;20199;-89
2021/05/17 05:44:02;;;;;;;1999.90;999.90;;;10.30;99.90;;;;;;4897796;29;20183;-91
2021/05/17 05:46:30;;;;;;;1999.90;999.90;;;10.40;99.90;;;;;;4897544;29;20216;-90
2021/05/17 05:48:59;;;;;;;1999.90;999.90;;;10.40;99.90;;;;;;4893184;29;20290;-88
2021/05/17 13:33:30;;;;;;;1999.90;999.90;;;14.80;99.90;;;;;;4916293;29;20273;-89
2021/05/17 13:36:05;;;;;;;1999.90;999.90;;;14.80;99.90;;;;;;4912868;29;20226;-88
2021/05/17 13:39:00;;;;;;;1999.90;999.90;;;14.50;99.90;;;;;;4913111;29;20229;-89
2021/05/17 13:41:28;;;;;;;1999.90;999.90;;;14.50;99.90;;;;;;4911738;29;20313;-90
2021/05/17 13:43:56;;;;;;;1999.90;999.90;;;14.30;99.90;;;;;;4898878;29;20210;-88
2021/05/17 13:46:27;;;;;;;1999.90;999.90;;;14.30;99.90;;;;;;4899167;29;20604;-90
2021/05/17 13:49:02;;;;;;;1999.90;999.90;;;14.30;99.90;;;;;;4926115;29;20215;-88
2021/05/17 13:51:33;;;;;;;1999.90;999.90;;;14.40;99.90;;;;;;4913393;29;20548;-89
2021/05/17 13:54:00;;;;;;;1999.90;999.90;;;14.50;99.90;;;;;;4899703;29;20187;-90
2021/05/17 15:47:21;;;;;;;1999.90;999.90;;;14.40;99.90;;;;;;4899017;27;20210;-93
2021/05/17 15:50:31;;;;;;;1999.90;999.90;;;14.20;99.90;;;;;;4884185;29;20193;-91
2021/05/17 15:53:14;;;;;;;1999.90;999.90;;;14.30;99.90;;;;;;4871570;29;20183;-92
2021/05/17 15:55:52;;;;;;;1999.90;999.90;;;14.30;99.90;;;;;;4884151;29;20559;-93
2021/05/17 15:58:26;;;;;;;1999.90;999.90;;;14.10;99.90;;;;;;4883926;29;20175;-92
2021/05/17 16:00:55;;;;;;;1999.90;999.90;;;14.20;99.90;;;;;;4883608;29;20265;-92
2021/05/17 16:03:23;;;;;;;1999.90;999.90;;;14.20;99.90;;;;;;4883670;29;20178;-92
2021/05/17 16:05:52;;;;;;;1999.90;999.90;;;14.10;99.90;;;;;;4883583;29;20179;-93
2021/05/17 16:08:20;;;;;;;1999.90;999.90;;;13.90;99.90;;;;;;4884081;29;20186;-92
2021/05/17 16:10:48;;;;;;;1999.90;999.90;;;13.50;99.90;;;;;;4883762;29;20187;-91
2021/05/17 16:21:23;;;;;;;1999.90;999.90;;;13.80;99.90;;;;;;4865333;29;20687;-92
2021/05/17 16:23:51;;;;;;;1999.90;999.90;;;14.10;99.90;;;;;;4883009;29;20175;-92
2021/05/17 16:26:17;;;;;;;1999.90;999.90;;;14.10;99.90;;;;;;4882951;29;20183;-90
2021/05/17 16:28:44;;;;;;;1999.90;999.90;;;14.00;99.90;;;;;;4882954;29;20179;-89
2021/05/17 16:31:13;;;;;;;1999.90;999.90;;;13.90;99.90;;;;;;4882805;29;20186;-90
2021/05/17 16:33:39;;;;;;;1999.90;999.90;;;13.80;99.90;;;;;;4882674;29;20187;-92
2021/05/17 16:36:19;;;;;;;1999.90;999.90;;;13.70;99.90;;;;;;4890950;29;20198;-92
2021/05/17 16:39:21;;;;;;;;;;;;;;;;;;;;;
2021/05/17 17:55:43;;;;;;;;;;;;;;;;;;;;;
2021/05/17 18:01:18;;;;;;;1999.90;999.90;;;12.60;99.90;;;;;;4907125;29;20232;-90
2021/05/17 18:03:47;;;;;;;1999.90;999.90;;;12.50;99.90;;;;;;4916563;29;20584;-91
